Ashland, Oregon
Current Conditions -  °F | °C
As of 3:53 AM on Saturday 25 Oct 2014 (Local Time) from KMFR Reporting Station
Clear Clear  
Wind Chill: 64°   Ceiling: Unl
Heat Index: 64°   Visibility: 10mi
Dew Point: 45°   Wind: 23mph
Humidity: 50%   Direction: 150°SSE
Pressure: 29.5"   Gusts: 30mph
Location:  42.2°N, 122.71°W
Report Text: KMFR 251053Z AUTO 15020G26KT 10SM CLR 18/07 A2950 RMK AO2 PK WND 14033/1026 SLP981 T01780072
Loading
Personal Weather Stations






























Interactive Weather Map New forecast layout! Learn more

10-Day Weather Forecast

Advertisements
Track Severe Weather on mobile